createdAt,value
2023-03-20T00:02:37.838Z,44.57
2023-03-20T00:05:40.300Z,44.69
2023-03-20T00:08:45.108Z,44.76
2023-03-20T00:11:49.212Z,44.84
2023-03-20T00:14:51.088Z,44.80
2023-03-20T00:17:53.527Z,44.65
2023-03-20T00:20:55.140Z,44.70
2023-03-20T00:23:57.866Z,44.78
2023-03-20T00:26:59.713Z,44.89
2023-03-20T00:30:02.128Z,44.80
2023-03-20T00:33:05.451Z,44.93
2023-03-20T00:36:09.122Z,44.91
2023-03-20T00:39:10.931Z,44.97
2023-03-20T00:42:21.229Z,45.03
2023-03-20T00:45:23.737Z,44.94
2023-03-20T00:48:26.063Z,45.02
2023-03-20T00:51:28.693Z,45.08
2023-03-20T00:54:31.650Z,45.02
2023-03-20T00:58:00.118Z,45.14
2023-03-20T01:01:02.074Z,45.14
2023-03-20T01:04:12.375Z,45.15
2023-03-20T01:07:15.814Z,45.08
2023-03-20T01:10:18.260Z,45.02
2023-03-20T01:13:24.001Z,45.20
2023-03-20T01:16:26.634Z,45.08
2023-03-20T01:19:28.709Z,45.21
2023-03-20T01:22:30.844Z,45.24
2023-03-20T01:25:32.775Z,45.28
2023-03-20T01:28:35.228Z,45.25
2023-03-20T01:31:36.973Z,45.25
2023-03-20T01:34:39.122Z,45.26
2023-03-20T01:37:41.655Z,45.36
2023-03-20T01:41:03.763Z,45.42
2023-03-20T01:44:22.961Z,45.44
2023-03-20T01:47:28.573Z,45.41
2023-03-20T01:50:34.077Z,45.44
2023-03-20T01:53:46.603Z,45.54
2023-03-20T01:57:03.890Z,45.69
2023-03-20T02:00:10.101Z,45.64
2023-03-20T02:03:18.932Z,45.72
2023-03-20T02:07:00.052Z,45.64
2023-03-20T02:10:28.479Z,45.75
2023-03-20T02:13:37.712Z,45.74
2023-03-20T02:16:40.164Z,45.77
2023-03-20T02:20:49.878Z,45.77
2023-03-20T02:24:19.238Z,45.79
2023-03-20T02:27:40.232Z,45.84
2023-03-20T02:31:03.311Z,45.87
2023-03-20T02:34:18.739Z,46.00
2023-03-20T02:37:50.968Z,45.98
2023-03-20T02:41:21.133Z,45.94
2023-03-20T02:44:35.944Z,45.90
2023-03-20T02:47:52.868Z,46.07
2023-03-20T02:51:06.226Z,46.06
2023-03-20T02:54:17.525Z,46.08
2023-03-20T02:57:28.845Z,46.03
2023-03-20T03:00:37.609Z,45.97
2023-03-20T03:03:49.463Z,46.02
2023-03-20T03:06:55.224Z,46.07
2023-03-20T03:10:07.052Z,46.12
2023-03-20T03:13:14.949Z,46.11
2023-03-20T03:16:28.824Z,46.18
2023-03-20T03:19:33.493Z,46.15
2023-03-20T03:22:35.734Z,46.19
2023-03-20T03:25:40.910Z,46.15
2023-03-20T03:28:50.508Z,46.16
2023-03-20T03:31:52.535Z,46.18
2023-03-20T03:34:55.387Z,46.16
2023-03-20T03:38:00.951Z,46.21
2023-03-20T03:41:14.448Z,46.22
2023-03-20T03:44:25.948Z,46.23
2023-03-20T03:47:44.713Z,46.22
2023-03-20T03:50:56.932Z,46.29
2023-03-20T03:54:08.754Z,46.29
2023-03-20T03:57:13.294Z,46.29
2023-03-20T04:00:19.736Z,46.36
2023-03-20T04:03:28.098Z,46.22
2023-03-20T04:06:30.076Z,46.22
2023-03-20T04:09:33.025Z,46.25
2023-03-20T04:12:39.030Z,46.38
2023-03-20T04:15:44.752Z,46.44
2023-03-20T04:18:46.595Z,46.49
2023-03-20T04:21:49.376Z,46.45
2023-03-20T04:24:52.105Z,46.48
2023-03-20T04:27:54.977Z,46.52
2023-03-20T04:31:08.156Z,46.50
2023-03-20T04:34:24.277Z,46.56
2023-03-20T04:37:37.682Z,46.53
2023-03-20T04:40:43.622Z,46.47
2023-03-20T04:43:45.366Z,46.57
2023-03-20T04:46:47.164Z,46.61
2023-03-20T04:49:52.078Z,46.60
2023-03-20T04:52:54.024Z,46.67
2023-03-20T04:55:55.948Z,46.80
2023-03-20T04:58:57.937Z,46.83
2023-03-20T05:01:59.953Z,46.95
2023-03-20T05:05:02.793Z,47.01
2023-03-20T05:08:05.990Z,46.97
2023-03-20T05:11:11.182Z,47.05
2023-03-20T05:14:31.240Z,46.99
2023-03-20T05:18:09.160Z,47.10
2023-03-20T05:21:25.197Z,47.26
2023-03-20T05:24:44.763Z,47.26
2023-03-20T05:28:25.058Z,47.27
2023-03-20T05:31:42.840Z,47.42
2023-03-20T05:35:02.136Z,47.47
2023-03-20T05:38:26.941Z,47.59
2023-03-20T05:41:45.756Z,47.62
2023-03-20T05:45:06.993Z,47.73
2023-03-20T05:48:34.794Z,47.89
2023-03-20T05:51:51.705Z,48.10
2023-03-20T05:55:11.522Z,48.20
2023-03-20T05:58:34.751Z,48.32
2023-03-20T06:01:43.634Z,48.59
2023-03-20T06:05:06.401Z,48.65
2023-03-20T06:08:16.213Z,49.00
2023-03-20T06:11:18.067Z,49.21
2023-03-20T06:14:20.126Z,49.35
2023-03-20T06:17:27.156Z,49.44
2023-03-20T06:20:33.890Z,49.67
2023-03-20T06:23:37.245Z,49.94
2023-03-20T06:26:39.626Z,50.12
2023-03-20T06:29:44.656Z,50.19
2023-03-20T06:32:50.516Z,50.36
2023-03-20T06:35:53.175Z,50.59
2023-03-20T06:38:56.319Z,50.70
2023-03-20T06:41:58.798Z,50.97
2023-03-20T06:45:04.287Z,50.99
2023-03-20T06:48:24.341Z,51.32
2023-03-20T06:51:26.567Z,51.48
2023-03-20T06:54:28.554Z,51.56
2023-03-20T06:57:30.693Z,51.78
2023-03-20T07:00:51.453Z,51.87
2023-03-20T07:03:58.128Z,51.98
2023-03-20T07:07:24.712Z,52.19
2023-03-20T07:10:43.799Z,52.41
2023-03-20T07:13:49.747Z,52.50
2023-03-20T07:17:14.924Z,52.64
2023-03-20T07:20:19.333Z,52.58
2023-03-20T07:23:21.337Z,52.39
2023-03-20T07:26:23.434Z,52.48
2023-03-20T07:29:25.404Z,52.53
2023-03-20T07:35:59.017Z,52.77
2023-03-20T07:39:46.988Z,52.78
2023-03-20T07:43:24.445Z,53.12
2023-03-20T07:47:10.045Z,53.28
2023-03-20T07:55:35.843Z,53.41
2023-03-20T07:59:01.668Z,53.75
2023-03-20T08:02:05.365Z,53.85
2023-03-20T08:05:09.621Z,54.07
2023-03-20T08:08:16.622Z,53.95
2023-03-20T08:32:07.357Z,55.76
2023-03-20T08:35:29.747Z,55.94
2023-03-20T08:48:17.198Z,57.00
2023-03-20T09:16:14.835Z,58.91
2023-03-20T09:24:50.941Z,59.74
2023-03-20T09:28:12.063Z,59.95
2023-03-20T09:35:33.628Z,60.35
2023-03-20T09:38:36.840Z,60.52
2023-03-20T09:41:53.144Z,60.55
2023-03-20T09:45:36.619Z,60.83
2023-03-20T09:48:48.779Z,61.06
2023-03-20T09:51:56.537Z,61.10
2023-03-20T09:55:08.061Z,61.18
2023-03-20T09:58:25.782Z,61.27
2023-03-20T10:01:47.278Z,61.57
2023-03-20T10:04:54.891Z,61.65
2023-03-20T10:08:03.371Z,61.88
2023-03-20T10:11:40.500Z,62.01
2023-03-20T10:15:02.130Z,62.22
2023-03-20T10:18:17.880Z,62.30
2023-03-20T10:21:32.743Z,62.35
2023-03-20T10:24:35.912Z,62.49
2023-03-20T10:27:44.227Z,62.75
2023-03-20T10:31:18.141Z,62.73
2023-03-20T10:34:45.575Z,62.95
2023-03-20T10:38:02.515Z,63.05
2023-03-20T10:41:13.951Z,63.16
2023-03-20T10:44:27.800Z,63.23
2023-03-20T10:47:35.643Z,63.27
2023-03-20T10:50:47.521Z,63.36
2023-03-20T10:54:02.363Z,63.38
2023-03-20T10:57:06.945Z,63.37
2023-03-20T11:00:20.088Z,63.48
2023-03-20T11:03:30.621Z,63.54
2023-03-20T11:06:42.323Z,63.66
2023-03-20T11:09:45.748Z,63.78
2023-03-20T11:13:25.227Z,63.63
2023-03-20T11:16:34.547Z,63.55
2023-03-20T11:19:50.726Z,63.63
2023-03-20T11:23:04.816Z,63.60
2023-03-20T11:26:18.250Z,63.84
2023-03-20T11:29:46.403Z,63.68
2023-03-20T11:32:56.745Z,63.77
2023-03-20T11:36:29.645Z,63.67
2023-03-20T11:39:34.031Z,63.85
2023-03-20T11:42:37.420Z,63.72
2023-03-20T11:45:45.485Z,63.79
2023-03-20T11:49:20.929Z,63.88
2023-03-20T11:52:32.777Z,63.75
2023-03-20T11:55:36.234Z,64.07
2023-03-20T11:59:04.968Z,64.08
2023-03-20T12:02:22.667Z,64.07
2023-03-20T12:05:39.977Z,64.14
2023-03-20T12:08:47.683Z,64.22
2023-03-20T12:11:58.959Z,64.17
2023-03-20T12:15:21.745Z,64.15
2023-03-20T12:18:31.884Z,64.19
2023-03-20T12:22:04.605Z,64.03
2023-03-20T12:25:19.153Z,64.09
2023-03-20T12:28:47.052Z,64.05
2023-03-20T12:32:18.311Z,64.05
2023-03-20T12:35:29.902Z,63.95
2023-03-20T12:38:37.113Z,63.84
2023-03-20T12:41:59.006Z,63.93
2023-03-20T12:45:35.648Z,63.81
2023-03-20T12:49:08.647Z,63.77
2023-03-20T12:52:26.314Z,63.74
2023-03-20T12:55:56.320Z,63.67
2023-03-20T12:59:12.504Z,63.63
2023-03-20T13:02:43.552Z,63.65
2023-03-20T13:05:58.338Z,63.60
2023-03-20T13:09:18.485Z,63.62
2023-03-20T13:12:37.376Z,63.64
2023-03-20T13:16:22.382Z,63.59
2023-03-20T13:19:35.120Z,63.49
2023-03-20T13:22:54.935Z,63.52
2023-03-20T13:26:17.536Z,63.58
2023-03-20T13:29:49.816Z,63.43
2023-03-20T13:33:24.362Z,63.66
2023-03-20T13:36:56.483Z,63.59
2023-03-20T13:44:01.508Z,63.45
2023-03-20T13:47:19.697Z,63.38
2023-03-20T13:50:50.580Z,63.37
2023-03-20T13:54:12.092Z,63.25
2023-03-20T13:57:36.670Z,63.38
2023-03-20T14:01:00.253Z,63.37
2023-03-20T14:04:03.984Z,63.26
2023-03-20T14:07:38.900Z,63.20
2023-03-20T14:10:43.956Z,63.22
2023-03-20T14:13:56.630Z,63.28
2023-03-20T14:17:09.721Z,63.25
2023-03-20T14:20:27.713Z,63.35
2023-03-20T14:23:56.471Z,63.22
2023-03-20T14:27:01.553Z,63.34
2023-03-20T14:30:51.211Z,63.30
2023-03-20T14:34:08.987Z,63.29
2023-03-20T14:41:30.453Z,63.43
2023-03-20T14:44:48.086Z,63.41
2023-03-20T14:48:27.737Z,63.43
2023-03-20T14:51:44.283Z,63.57
2023-03-20T14:54:54.303Z,63.41
2023-03-20T14:58:02.320Z,63.63
2023-03-20T15:01:08.783Z,63.43
2023-03-20T15:04:38.642Z,63.55
2023-03-20T15:07:42.574Z,63.65
2023-03-20T15:10:57.340Z,63.49
2023-03-20T15:14:04.412Z,63.53
2023-03-20T15:17:17.898Z,63.48
2023-03-20T15:20:26.419Z,63.57
2023-03-20T15:23:29.656Z,63.47
2023-03-20T15:26:35.327Z,63.52
2023-03-20T15:29:43.225Z,63.55
2023-03-20T15:32:52.951Z,63.56
2023-03-20T15:35:56.747Z,63.53
2023-03-20T15:39:27.499Z,63.46
2023-03-20T15:42:30.770Z,63.50
2023-03-20T15:45:38.178Z,63.52
2023-03-20T15:48:46.970Z,63.60
2023-03-20T15:51:52.310Z,63.50
2023-03-20T15:54:58.504Z,63.65
2023-03-20T15:58:02.880Z,63.57
2023-03-20T16:01:08.132Z,63.46
2023-03-20T16:04:18.851Z,63.65
2023-03-20T16:07:27.642Z,63.66
2023-03-20T16:10:36.567Z,63.58
2023-03-20T16:13:44.011Z,63.57
2023-03-20T16:16:49.474Z,63.67
2023-03-20T16:19:53.138Z,63.61
2023-03-20T16:23:02.509Z,63.72
2023-03-20T16:26:08.603Z,63.60
2023-03-20T16:29:15.085Z,63.54
2023-03-20T16:32:26.975Z,63.50
2023-03-20T16:35:37.300Z,63.61
2023-03-20T16:38:40.815Z,63.58
2023-03-20T16:41:45.663Z,63.70
2023-03-20T16:44:55.025Z,63.73
2023-03-20T16:48:10.124Z,63.63
2023-03-20T16:51:32.326Z,63.60
2023-03-20T16:54:37.555Z,63.11
2023-03-20T16:57:42.213Z,62.72
2023-03-20T17:00:57.272Z,62.88
2023-03-20T17:04:22.302Z,63.02
2023-03-20T17:07:28.209Z,62.47
2023-03-20T17:10:31.394Z,62.56
2023-03-20T17:13:34.643Z,62.60
2023-03-20T17:16:40.221Z,62.60
2023-03-20T17:19:43.712Z,62.71
2023-03-20T17:22:47.366Z,62.79
2023-03-20T17:25:51.097Z,63.00
2023-03-20T17:28:54.887Z,63.07
2023-03-20T17:31:58.108Z,63.24
2023-03-20T17:35:01.345Z,63.43
2023-03-20T17:38:04.471Z,63.67
2023-03-20T17:41:14.795Z,63.67
2023-03-20T17:44:17.971Z,63.86
2023-03-20T17:47:23.429Z,64.11
2023-03-20T17:50:27.557Z,64.26
2023-03-20T17:53:31.458Z,64.50
2023-03-20T17:56:34.712Z,64.88
2023-03-20T17:59:37.836Z,65.10
2023-03-20T18:02:41.012Z,65.26
2023-03-20T18:05:46.086Z,65.42
2023-03-20T18:08:49.166Z,65.44
2023-03-20T18:11:52.166Z,65.48
2023-03-20T18:14:55.474Z,65.65
2023-03-20T18:17:58.898Z,65.76
2023-03-20T18:21:03.015Z,65.85
2023-03-20T18:24:06.449Z,66.00
2023-03-20T18:27:11.000Z,66.00
2023-03-20T18:30:20.256Z,66.06
2023-03-20T18:33:27.586Z,66.15
2023-03-20T18:36:30.720Z,66.27
2023-03-20T18:39:33.789Z,66.25
2023-03-20T18:42:36.946Z,66.21
2023-03-20T18:45:40.103Z,66.34
2023-03-20T18:48:43.730Z,66.41
2023-03-20T18:51:46.979Z,66.43
2023-03-20T18:54:51.975Z,66.52
2023-03-20T18:57:56.569Z,66.52
2023-03-20T19:01:00.457Z,66.46
2023-03-20T19:04:03.734Z,66.55
2023-03-20T19:07:07.833Z,66.60
2023-03-20T19:10:24.801Z,66.62
2023-03-20T19:13:27.917Z,66.74
2023-03-20T19:16:35.154Z,66.71
2023-03-20T19:19:38.336Z,66.71
2023-03-20T19:22:41.723Z,66.89
2023-03-20T19:25:47.112Z,66.84
2023-03-20T19:28:50.947Z,66.83
2023-03-20T19:31:54.182Z,66.97
2023-03-20T19:38:21.673Z,66.90
2023-03-20T19:41:25.506Z,66.96
2023-03-20T19:44:28.640Z,66.90
2023-03-20T19:47:31.903Z,67.04
2023-03-20T19:50:41.364Z,67.04
2023-03-20T19:53:46.330Z,67.15
2023-03-20T19:56:49.521Z,67.07
2023-03-20T19:59:52.968Z,67.11
2023-03-20T20:02:56.520Z,67.09
2023-03-20T20:06:03.777Z,67.15
2023-03-20T20:09:06.957Z,67.33
2023-03-20T20:12:10.202Z,67.21
2023-03-20T20:15:14.210Z,67.23
2023-03-20T20:18:18.787Z,67.37
2023-03-20T20:22:13.304Z,67.32
2023-03-20T20:24:45.091Z,67.34
2023-03-20T20:27:48.792Z,67.33
2023-03-20T20:30:55.784Z,67.44
2023-03-20T20:34:25.231Z,67.44
2023-03-20T20:38:21.212Z,67.51
2023-03-20T20:40:45.293Z,67.53
2023-03-20T20:44:14.658Z,67.48
2023-03-20T20:47:11.994Z,67.66
2023-03-20T20:50:18.829Z,67.71
2023-03-20T20:53:21.944Z,67.75
2023-03-20T20:56:25.042Z,67.74
2023-03-20T20:59:28.455Z,67.74
2023-03-20T21:02:32.884Z,67.89
2023-03-20T21:05:37.849Z,67.82
2023-03-20T21:08:43.906Z,68.04
2023-03-20T21:11:49.794Z,67.95
2023-03-20T21:14:53.732Z,68.12
2023-03-20T21:18:01.447Z,68.08
2023-03-20T21:21:11.047Z,68.17
2023-03-20T21:24:31.171Z,68.21
2023-03-20T21:27:36.720Z,68.35
2023-03-20T21:31:00.021Z,68.25
2023-03-20T21:34:06.161Z,68.32
2023-03-20T21:38:15.803Z,68.35
2023-03-20T21:40:32.912Z,68.50
2023-03-20T21:43:36.292Z,68.38
2023-03-20T21:47:09.694Z,68.35
2023-03-20T22:01:10.950Z,68.45
2023-03-20T22:04:37.647Z,68.37
2023-03-20T22:07:52.209Z,68.56
2023-03-20T22:17:56.121Z,68.48
2023-03-20T22:34:53.757Z,68.65
2023-03-20T22:44:58.496Z,68.51
2023-03-20T22:47:42.312Z,68.58
2023-03-20T22:50:50.943Z,68.68
2023-03-20T22:53:54.070Z,68.72
2023-03-20T22:56:57.185Z,68.92
2023-03-20T23:00:00.325Z,69.00
2023-03-20T23:03:37.762Z,69.12
2023-03-20T23:06:28.627Z,69.21
2023-03-20T23:09:31.745Z,69.33
2023-03-20T23:12:34.780Z,69.29
2023-03-20T23:15:37.971Z,69.25
2023-03-20T23:18:41.296Z,69.33
2023-03-20T23:21:44.376Z,69.30
2023-03-20T23:24:47.417Z,69.39
2023-03-20T23:27:50.852Z,69.37
2023-03-20T23:31:07.615Z,69.35
2023-03-20T23:34:13.537Z,69.52
2023-03-20T23:37:16.661Z,69.49
2023-03-20T23:40:19.897Z,69.48
2023-03-20T23:43:23.063Z,69.56
2023-03-20T23:46:26.222Z,69.55
2023-03-20T23:49:29.470Z,69.59
2023-03-20T23:52:35.155Z,69.57
2023-03-20T23:55:40.397Z,69.64
2023-03-20T23:58:54.843Z,69.69
